Time;durP1;ratioP1;P1;durP2;ratioP2;P2;SDS_P1;SDS_P2;PMS_P1;PMS_P2;Temp;Humidity;BMP_temperature;BMP_pressure;BME280_temperature;BME280_humidity;BME280_pressure;Samples;Min_cycle;Max_cycle;Signal;HPM_P1;HPM_P2
2022/03/27 00:00:45;;;;;;;7.33;6.30;;;14.70;68.70;;;;;;5009979;28;20560;-46
2022/03/27 00:03:13;;;;;;;6.27;5.67;;;14.70;68.50;;;;;;5012245;28;20449;-46
2022/03/27 00:05:41;;;;;;;6.07;5.50;;;14.70;68.60;;;;;;5009272;28;20468;-45
2022/03/27 00:08:10;;;;;;;5.33;4.90;;;14.70;68.90;;;;;;5009200;28;20487;-43
2022/03/27 00:13:25;;;;;;;6.73;6.13;;;14.70;68.50;;;;;;5011545;28;20869;-46
2022/03/27 00:15:54;;;;;;;7.13;6.10;;;14.70;68.50;;;;;;5011241;28;20461;-44
2022/03/27 00:18:22;;;;;;;7.60;6.90;;;14.70;68.50;;;;;;4993990;28;20499;-44
2022/03/27 00:20:51;;;;;;;7.37;6.67;;;14.70;68.40;;;;;;4999932;28;20441;-46
2022/03/27 00:23:19;;;;;;;7.83;6.97;;;14.70;68.70;;;;;;4996932;28;20508;-45
2022/03/27 00:25:50;;;;;;;7.53;6.90;;;14.70;68.50;;;;;;5007532;28;20430;-45
2022/03/27 00:28:18;;;;;;;6.70;5.93;;;14.70;68.50;;;;;;5011812;28;20433;-46
2022/03/27 00:30:47;;;;;;;5.63;5.13;;;14.70;68.90;;;;;;5004701;28;20473;-45
2022/03/27 00:33:16;;;;;;;7.17;6.30;;;14.70;69.10;;;;;;5004084;28;20489;-46
2022/03/27 00:35:44;;;;;;;7.33;6.63;;;14.70;68.80;;;;;;5010957;28;20476;-46
2022/03/27 00:38:12;;;;;;;6.17;5.60;;;14.60;68.70;;;;;;5009049;28;20449;-45
2022/03/27 00:40:40;;;;;;;7.80;7.10;;;14.70;69.00;;;;;;5011209;28;20469;-44
2022/03/27 00:43:09;;;;;;;6.97;6.40;;;14.60;68.90;;;;;;5011197;28;20503;-46
2022/03/27 00:45:37;;;;;;;6.70;6.10;;;14.70;69.20;;;;;;5005374;28;20565;-45
2022/03/27 00:48:07;;;;;;;7.23;6.53;;;14.60;69.10;;;;;;5000966;28;20937;-46
2022/03/27 00:50:35;;;;;;;7.27;6.50;;;14.70;68.90;;;;;;5011082;28;20964;-44
2022/03/27 00:53:03;;;;;;;8.03;6.20;;;14.70;68.80;;;;;;4998484;28;20477;-46
2022/03/27 00:55:31;;;;;;;7.47;5.70;;;14.60;68.60;;;;;;4990804;28;20489;-48
2022/03/27 00:57:59;;;;;;;7.80;7.00;;;14.60;68.90;;;;;;5009055;28;20472;-48
2022/03/27 01:00:44;;;;;;;9.93;7.03;;;14.60;68.60;;;;;;5004845;28;20481;-49
2022/03/27 01:03:15;;;;;;;7.93;5.90;;;14.60;68.50;;;;;;5010368;28;20469;-45
2022/03/27 01:05:46;;;;;;;7.03;6.07;;;14.60;69.00;;;;;;5008214;28;20479;-46
2022/03/27 01:08:14;;;;;;;7.07;6.40;;;14.60;69.10;;;;;;5008688;28;20441;-47
2022/03/27 01:10:42;;;;;;;9.83;5.73;;;14.60;69.00;;;;;;5010011;28;21261;-43
2022/03/27 01:13:13;;;;;;;7.00;6.27;;;14.60;69.20;;;;;;5011163;28;20968;-45
2022/03/27 01:15:44;;;;;;;9.53;7.47;;;14.60;69.00;;;;;;5002185;28;20557;-46
2022/03/27 01:18:14;;;;;;;9.00;8.20;;;14.60;68.90;;;;;;4991302;28;20487;-46
2022/03/27 01:20:43;;;;;;;8.03;6.87;;;14.60;68.60;;;;;;5009021;28;20743;-45
2022/03/27 01:23:14;;;;;;;7.80;7.10;;;14.60;68.70;;;;;;5008298;28;20520;-44
2022/03/27 01:25:43;;;;;;;7.77;6.97;;;14.60;68.70;;;;;;5010066;28;20511;-45
2022/03/27 01:28:14;;;;;;;8.90;6.87;;;14.60;68.80;;;;;;5010291;28;20476;-44
2022/03/27 01:30:42;;;;;;;6.63;5.97;;;14.60;68.90;;;;;;5010654;28;20473;-45
2022/03/27 01:33:10;;;;;;;8.40;7.60;;;14.60;69.20;;;;;;5006987;28;20491;-44
2022/03/27 01:35:39;;;;;;;7.80;6.77;;;14.60;69.00;;;;;;5009643;28;21068;-46
2022/03/27 01:38:08;;;;;;;8.90;7.00;;;14.60;68.90;;;;;;5007823;28;20469;-45
2022/03/27 01:40:36;;;;;;;8.53;7.63;;;14.60;69.00;;;;;;5010264;28;20899;-46
2022/03/27 01:43:05;;;;;;;7.73;6.70;;;14.60;68.90;;;;;;5010168;28;20456;-48
2022/03/27 01:45:33;;;;;;;8.87;8.00;;;14.60;68.70;;;;;;5009928;28;20472;-45
2022/03/27 01:48:01;;;;;;;7.80;6.73;;;14.60;68.80;;;;;;4995448;28;20537;-47
2022/03/27 01:50:29;;;;;;;7.53;6.87;;;14.60;68.80;;;;;;5007382;28;20495;-47
2022/03/27 01:52:57;;;;;;;8.47;7.63;;;14.60;68.80;;;;;;4998824;28;20521;-44
2022/03/27 01:55:26;;;;;;;6.80;6.10;;;14.60;68.60;;;;;;5006683;28;20548;-45
2022/03/27 01:57:54;;;;;;;8.87;6.53;;;14.60;68.80;;;;;;5010698;28;20871;-45
2022/03/27 02:00:22;;;;;;;9.67;7.27;;;14.60;68.90;;;;;;5007530;28;20980;-47
2022/03/27 02:02:52;;;;;;;8.43;7.57;;;14.60;68.90;;;;;;5009828;28;20457;-47
2022/03/27 02:05:21;;;;;;;7.57;6.83;;;14.50;68.70;;;;;;5009846;28;20531;-46
2022/03/27 02:07:50;;;;;;;10.33;6.43;;;14.50;68.90;;;;;;5002390;28;20451;-45
2022/03/27 02:10:18;;;;;;;8.13;7.37;;;14.50;68.90;;;;;;5010239;28;20611;-44
2022/03/27 02:12:48;;;;;;;7.90;7.20;;;14.50;68.90;;;;;;5013970;28;20456;-46
2022/03/27 02:15:16;;;;;;;8.17;7.10;;;14.50;68.90;;;;;;5010209;28;20482;-46
2022/03/27 02:17:44;;;;;;;7.30;6.57;;;14.50;68.90;;;;;;5002668;28;20459;-43
2022/03/27 02:20:13;;;;;;;7.40;6.70;;;14.50;68.90;;;;;;5013761;28;21041;-44
2022/03/27 02:22:41;;;;;;;7.13;6.20;;;14.50;69.10;;;;;;5010566;28;20538;-50
2022/03/27 02:25:10;;;;;;;6.87;5.80;;;14.50;69.30;;;;;;5013262;28;20484;-49
2022/03/27 02:27:38;;;;;;;6.40;5.70;;;14.50;69.40;;;;;;5013213;28;20448;-46
2022/03/27 02:30:10;;;;;;;6.50;5.60;;;14.50;69.40;;;;;;5012243;28;20454;-47
2022/03/27 02:32:38;;;;;;;6.13;5.63;;;14.50;69.40;;;;;;5010244;28;20483;-45
2022/03/27 02:35:07;;;;;;;7.10;6.43;;;14.50;69.40;;;;;;5012672;28;20964;-45
2022/03/27 02:37:35;;;;;;;8.37;7.00;;;14.50;69.20;;;;;;5004872;28;20464;-47
2022/03/27 02:40:03;;;;;;;6.23;5.73;;;14.50;69.10;;;;;;4998394;28;20509;-44
2022/03/27 02:42:31;;;;;;;6.57;5.97;;;14.50;69.50;;;;;;5014054;28;20451;-45
2022/03/27 02:44:59;;;;;;;8.37;6.50;;;14.50;69.50;;;;;;5027633;28;20533;-44
2022/03/27 02:47:29;;;;;;;7.77;7.07;;;14.50;69.50;;;;;;5016120;28;20511;-44
2022/03/27 02:49:57;;;;;;;6.87;6.17;;;14.50;69.50;;;;;;4995710;28;20468;-46
2022/03/27 02:52:25;;;;;;;6.53;5.73;;;14.50;69.60;;;;;;5006466;28;20499;-46
2022/03/27 02:54:53;;;;;;;8.37;7.43;;;14.50;69.70;;;;;;4993113;28;20585;-45
2022/03/27 02:57:21;;;;;;;7.00;6.30;;;14.50;69.80;;;;;;4994286;28;20466;-44
2022/03/27 02:59:51;;;;;;;6.10;5.50;;;14.40;69.60;;;;;;5005022;28;20526;-45
2022/03/27 03:02:19;;;;;;;6.87;6.20;;;14.50;69.80;;;;;;5000776;28;20453;-46
2022/03/27 03:04:49;;;;;;;7.87;7.07;;;14.40;69.90;;;;;;5012458;28;20976;-46
2022/03/27 03:07:18;;;;;;;5.97;5.37;;;14.40;69.90;;;;;;5006832;28;20445;-47
2022/03/27 03:09:46;;;;;;;7.30;6.57;;;14.40;69.80;;;;;;4997878;28;20539;-45
2022/03/27 03:12:14;;;;;;;7.13;6.43;;;14.40;69.70;;;;;;5013574;28;20482;-44
2022/03/27 03:14:43;;;;;;;7.00;6.40;;;14.40;69.50;;;;;;5011313;28;20478;-47
2022/03/27 03:17:11;;;;;;;8.60;7.30;;;14.40;69.40;;;;;;5007151;28;20883;-44
2022/03/27 03:19:39;;;;;;;7.50;6.80;;;14.40;69.30;;;;;;4994965;28;20518;-48
2022/03/27 03:22:09;;;;;;;7.13;6.53;;;14.40;69.20;;;;;;5008410;28;20445;-45
2022/03/27 03:24:37;;;;;;;7.27;6.57;;;14.40;69.30;;;;;;5004474;28;20500;-45
2022/03/27 03:27:05;;;;;;;7.47;6.70;;;14.40;69.30;;;;;;5013171;28;20436;-47
2022/03/27 03:29:34;;;;;;;8.63;7.30;;;14.40;69.40;;;;;;5011266;28;20481;-48
2022/03/27 03:32:02;;;;;;;8.83;6.63;;;14.40;69.30;;;;;;4996288;28;20481;-45
2022/03/27 03:34:30;;;;;;;7.90;7.10;;;14.40;69.30;;;;;;5002344;28;20476;-45
2022/03/27 03:36:59;;;;;;;8.53;7.57;;;14.40;69.30;;;;;;5009411;28;20538;-46
2022/03/27 03:39:30;;;;;;;6.80;6.20;;;14.40;69.20;;;;;;5012498;28;20798;-46
2022/03/27 03:41:58;;;;;;;7.50;5.77;;;14.40;69.30;;;;;;5013090;28;20478;-44
2022/03/27 03:44:27;;;;;;;7.00;6.30;;;14.40;69.30;;;;;;5011302;28;20467;-45
2022/03/27 03:46:55;;;;;;;8.83;6.57;;;14.40;69.10;;;;;;4996778;28;20556;-46
2022/03/27 03:49:24;;;;;;;8.50;7.03;;;14.40;69.20;;;;;;5010387;28;20518;-44
2022/03/27 03:51:53;;;;;;;7.90;7.00;;;14.40;69.20;;;;;;5009246;28;20452;-45
2022/03/27 03:54:22;;;;;;;9.07;6.97;;;14.40;69.20;;;;;;4992041;28;20473;-45
2022/03/27 03:56:52;;;;;;;6.97;6.27;;;14.30;70.40;;;;;;5001119;28;20465;-46
2022/03/27 03:59:20;;;;;;;6.80;6.17;;;14.30;69.30;;;;;;5011548;28;20457;-46
2022/03/27 04:01:58;;;;;;;7.93;6.57;;;14.30;69.30;;;;;;5005485;28;20718;-45
2022/03/27 04:04:26;;;;;;;6.90;6.07;;;14.30;69.20;;;;;;5011186;28;20498;-44
2022/03/27 04:06:54;;;;;;;8.23;6.37;;;14.30;69.30;;;;;;5008857;28;20487;-42
2022/03/27 04:09:23;;;;;;;8.40;7.53;;;14.30;69.30;;;;;;4992270;28;20910;-45
2022/03/27 04:11:53;;;;;;;7.20;6.50;;;14.30;69.30;;;;;;5009190;28;20433;-45
2022/03/27 04:14:21;;;;;;;7.63;6.70;;;14.30;69.20;;;;;;5010961;28;20775;-44
2022/03/27 04:16:51;;;;;;;7.97;7.17;;;14.30;69.20;;;;;;5006017;28;20513;-45
2022/03/27 04:19:20;;;;;;;6.87;6.17;;;14.30;69.30;;;;;;4998083;28;20478;-45
2022/03/27 04:21:48;;;;;;;7.57;6.70;;;14.30;69.40;;;;;;5009863;28;20559;-46
2022/03/27 04:24:16;;;;;;;7.93;6.67;;;14.30;69.40;;;;;;4996295;28;20848;-46
2022/03/27 04:26:44;;;;;;;7.27;6.53;;;14.30;69.30;;;;;;5012159;28;20491;-46
2022/03/27 04:29:14;;;;;;;7.63;6.93;;;14.30;69.40;;;;;;5010838;28;20467;-46
2022/03/27 04:31:43;;;;;;;6.50;5.90;;;14.30;69.40;;;;;;4999097;28;20473;-46
2022/03/27 04:34:11;;;;;;;6.60;5.90;;;14.30;69.60;;;;;;5004702;28;20539;-45
2022/03/27 04:36:40;;;;;;;7.17;6.20;;;14.20;69.60;;;;;;5010521;28;20474;-45
2022/03/27 04:39:09;;;;;;;7.10;6.37;;;14.20;69.60;;;;;;5004029;28;20480;-48
2022/03/27 04:41:37;;;;;;;7.13;5.90;;;14.20;69.70;;;;;;5011340;28;20441;-47
2022/03/27 04:44:06;;;;;;;7.33;6.43;;;14.20;69.80;;;;;;5010203;28;20498;-48
2022/03/27 04:46:37;;;;;;;6.80;6.10;;;14.20;69.70;;;;;;5010177;28;20506;-45
2022/03/27 04:49:05;;;;;;;8.43;6.30;;;14.20;69.80;;;;;;5010971;28;20483;-45
2022/03/27 04:51:33;;;;;;;6.63;6.00;;;14.20;69.70;;;;;;5010844;28;20473;-47
2022/03/27 04:54:01;;;;;;;6.70;6.00;;;14.20;69.70;;;;;;4990452;28;20552;-46
2022/03/27 04:56:31;;;;;;;6.03;5.53;;;14.20;69.70;;;;;;4996346;28;20859;-45
2022/03/27 04:58:59;;;;;;;7.10;5.70;;;14.20;70.00;;;;;;5010709;28;20491;-48
2022/03/27 05:01:27;;;;;;;6.60;5.90;;;14.20;70.00;;;;;;5009831;28;20463;-47
2022/03/27 05:03:57;;;;;;;5.63;5.13;;;14.20;70.00;;;;;;5006620;28;20487;-46
2022/03/27 05:06:25;;;;;;;7.73;6.47;;;14.20;70.00;;;;;;5009080;28;20947;-44
2022/03/27 05:08:58;;;;;;;7.27;6.57;;;14.20;69.90;;;;;;5008171;28;20540;-45
2022/03/27 05:11:28;;;;;;;6.90;6.07;;;14.20;69.80;;;;;;5010494;28;20428;-43
2022/03/27 05:13:56;;;;;;;5.73;5.20;;;14.20;70.10;;;;;;5009833;28;20474;-48
2022/03/27 05:16:24;;;;;;;8.53;6.87;;;14.20;70.10;;;;;;5008131;28;20471;-45
2022/03/27 05:18:53;;;;;;;6.73;6.00;;;14.20;70.00;;;;;;5010377;28;20525;-45
2022/03/27 05:21:25;;;;;;;6.80;6.20;;;14.20;70.10;;;;;;5011214;28;20765;-45
2022/03/27 05:23:53;;;;;;;8.10;6.87;;;14.20;70.00;;;;;;5005301;28;20469;-47
2022/03/27 05:26:21;;;;;;;8.30;6.27;;;14.10;69.80;;;;;;5010963;28;20827;-44
2022/03/27 05:28:49;;;;;;;6.70;6.00;;;14.10;70.00;;;;;;5009464;28;20475;-46
2022/03/27 05:31:17;;;;;;;7.53;5.90;;;14.10;70.00;;;;;;5005776;28;20479;-45
2022/03/27 05:33:45;;;;;;;7.00;6.33;;;14.10;70.00;;;;;;5010506;28;20514;-44
2022/03/27 05:36:14;;;;;;;7.53;6.83;;;14.10;69.90;;;;;;5010662;28;20798;-45
2022/03/27 05:38:43;;;;;;;8.40;6.60;;;14.10;69.70;;;;;;5006445;28;20981;-46
2022/03/27 05:41:11;;;;;;;7.30;6.60;;;14.10;69.70;;;;;;5010331;28;20476;-43
2022/03/27 05:43:40;;;;;;;6.00;5.47;;;14.10;69.90;;;;;;5009127;28;20468;-43
2022/03/27 05:46:08;;;;;;;7.47;6.57;;;14.10;69.90;;;;;;5004919;28;20447;-45
2022/03/27 05:48:36;;;;;;;8.77;7.00;;;14.10;69.80;;;;;;5014000;28;20485;-48
2022/03/27 05:51:04;;;;;;;8.83;7.83;;;14.10;69.70;;;;;;5014454;28;20994;-47
2022/03/27 05:53:32;;;;;;;6.73;5.80;;;14.10;69.60;;;;;;5009232;28;20478;-47
2022/03/27 05:56:02;;;;;;;6.53;5.87;;;14.10;69.80;;;;;;5012730;28;20478;-44
2022/03/27 05:58:31;;;;;;;8.13;6.33;;;14.10;69.80;;;;;;5013269;28;20442;-44
2022/03/27 06:00:59;;;;;;;10.10;6.60;;;14.10;69.80;;;;;;5005021;28;20531;-44
2022/03/27 06:03:28;;;;;;;8.20;6.23;;;14.10;69.90;;;;;;5011766;28;20521;-44
2022/03/27 06:05:56;;;;;;;6.87;6.17;;;14.10;70.00;;;;;;5014375;28;20427;-45
2022/03/27 06:08:24;;;;;;;6.30;5.70;;;14.00;70.00;;;;;;5010288;28;20451;-44
2022/03/27 06:10:52;;;;;;;5.93;5.40;;;14.00;70.00;;;;;;5014119;28;20438;-44
2022/03/27 06:13:22;;;;;;;6.60;6.00;;;14.00;70.00;;;;;;5012936;28;20983;-48
2022/03/27 06:15:51;;;;;;;6.17;5.60;;;14.00;70.00;;;;;;5011237;28;20489;-45
2022/03/27 06:18:19;;;;;;;6.93;6.23;;;14.00;69.90;;;;;;5012691;28;20527;-44
2022/03/27 06:20:47;;;;;;;7.90;6.40;;;14.00;69.90;;;;;;5012505;28;20501;-46
2022/03/27 06:23:16;;;;;;;6.97;6.30;;;14.00;71.20;;;;;;5010027;28;20482;-46
2022/03/27 06:25:44;;;;;;;8.57;7.00;;;14.00;69.80;;;;;;5012161;28;20486;-45
2022/03/27 06:28:12;;;;;;;8.17;6.10;;;14.00;69.80;;;;;;5013359;28;20536;-44
2022/03/27 06:30:41;;;;;;;6.47;5.87;;;14.00;70.00;;;;;;5012099;28;20553;-45
2022/03/27 06:33:09;;;;;;;6.60;6.00;;;14.00;70.00;;;;;;5001602;28;20468;-44
2022/03/27 06:35:37;;;;;;;7.13;5.97;;;14.00;69.90;;;;;;5013362;28;20895;-47
2022/03/27 06:38:06;;;;;;;7.30;6.60;;;14.00;69.90;;;;;;5009655;28;21000;-46
2022/03/27 06:40:34;;;;;;;7.33;6.10;;;14.00;70.00;;;;;;5012751;28;20475;-46
2022/03/27 06:43:02;;;;;;;8.13;6.20;;;14.00;70.00;;;;;;5012819;28;20453;-45
2022/03/27 06:45:31;;;;;;;7.90;6.70;;;14.00;70.00;;;;;;5008213;28;20489;-45
2022/03/27 06:48:00;;;;;;;7.40;6.40;;;14.00;70.10;;;;;;5012762;28;20438;-44
2022/03/27 06:50:29;;;;;;;7.10;6.40;;;14.00;70.20;;;;;;5012934;28;20478;-44
2022/03/27 06:52:57;;;;;;;9.47;6.83;;;14.00;70.20;;;;;;5003750;28;20555;-44
2022/03/27 06:55:27;;;;;;;6.87;6.23;;;14.00;70.30;;;;;;5012321;28;20876;-45
2022/03/27 06:57:55;;;;;;;7.43;6.50;;;14.00;70.30;;;;;;5000251;28;20814;-43
2022/03/27 07:03:11;;;;;;;5.43;4.93;;;14.00;70.50;;;;;;5018804;28;20579;-44
2022/03/27 07:06:03;;;;;;;5.10;4.60;;;13.90;70.50;;;;;;5006607;28;20486;-46
2022/03/27 07:08:31;;;;;;;6.27;5.77;;;13.90;70.60;;;;;;4996719;28;20458;-44
2022/03/27 07:10:59;;;;;;;8.00;6.87;;;13.90;70.70;;;;;;5009698;28;20435;-44
2022/03/27 07:13:28;;;;;;;7.43;6.60;;;13.90;70.80;;;;;;5011111;28;20463;-45
2022/03/27 07:15:56;;;;;;;8.00;7.20;;;13.90;70.90;;;;;;5012496;28;20439;-44
2022/03/27 07:18:26;;;;;;;6.07;5.57;;;13.90;70.90;;;;;;5010150;28;20545;-44
2022/03/27 07:20:54;;;;;;;6.00;5.50;;;13.90;71.00;;;;;;5012968;28;20962;-45
2022/03/27 07:23:24;;;;;;;8.47;6.77;;;13.90;71.00;;;;;;5002280;28;20836;-45
2022/03/27 07:25:55;;;;;;;6.93;5.90;;;13.90;71.30;;;;;;5041157;28;20463;-46
2022/03/27 07:28:24;;;;;;;9.10;7.53;;;13.90;71.30;;;;;;5025839;28;20451;-44
2022/03/27 07:30:53;;;;;;;9.87;8.30;;;13.90;71.50;;;;;;5006827;28;20527;-46
2022/03/27 07:33:21;;;;;;;10.53;8.70;;;13.90;71.50;;;;;;5006434;28;20562;-44
2022/03/27 07:35:50;;;;;;;11.03;8.17;;;13.90;71.50;;;;;;5008429;28;20479;-44
2022/03/27 07:38:18;;;;;;;8.57;6.93;;;13.90;71.80;;;;;;5010870;28;20947;-44
2022/03/27 07:40:47;;;;;;;7.70;6.03;;;13.90;71.60;;;;;;5011363;28;20501;-49
2022/03/27 07:43:16;;;;;;;8.63;7.40;;;13.90;71.70;;;;;;5012454;28;20901;-46
2022/03/27 07:45:44;;;;;;;13.50;8.87;;;13.90;71.90;;;;;;5009142;28;20883;-47
2022/03/27 07:48:12;;;;;;;10.80;8.80;;;13.90;71.90;;;;;;5010221;28;20497;-44
2022/03/27 07:50:40;;;;;;;10.77;8.63;;;13.90;72.10;;;;;;5011384;28;20499;-44
2022/03/27 07:53:10;;;;;;;11.43;8.20;;;13.80;72.10;;;;;;4999575;28;20468;-45
2022/03/27 07:55:39;;;;;;;9.23;7.57;;;13.80;72.10;;;;;;5006380;28;20479;-45
2022/03/27 07:58:07;;;;;;;9.83;6.97;;;13.80;72.10;;;;;;5011460;28;20508;-45
2022/03/27 08:00:35;;;;;;;7.37;6.63;;;13.80;72.10;;;;;;5010526;28;20536;-43
2022/03/27 08:03:04;;;;;;;7.40;6.43;;;13.80;73.30;;;;;;4999163;28;20535;-45
2022/03/27 08:05:33;;;;;;;6.10;5.47;;;13.80;72.00;;;;;;5004438;28;20486;-44
2022/03/27 08:08:01;;;;;;;7.33;5.37;;;13.80;72.10;;;;;;5001033;28;20448;-43
2022/03/27 08:10:30;;;;;;;6.10;5.50;;;13.80;72.10;;;;;;5004019;28;20498;-45
2022/03/27 08:12:59;;;;;;;19.17;12.47;;;13.80;72.20;;;;;;5009693;28;20525;-43
2022/03/27 08:15:28;;;;;;;18.80;13.03;;;13.80;72.70;;;;;;5008576;28;20475;-44
2022/03/27 08:17:56;;;;;;;13.80;11.33;;;13.80;72.70;;;;;;4994587;28;20859;-44
2022/03/27 08:20:29;;;;;;;10.73;8.70;;;13.80;72.70;;;;;;5011104;28;20483;-48
2022/03/27 08:22:57;;;;;;;8.27;7.47;;;13.80;72.70;;;;;;5001988;28;20465;-45
2022/03/27 08:28:14;;;;;;;11.43;9.37;;;13.80;72.90;;;;;;5009841;28;20439;-45
2022/03/27 08:30:42;;;;;;;11.17;7.90;;;13.80;73.00;;;;;;5009141;28;20998;-45
2022/03/27 08:33:10;;;;;;;12.57;9.27;;;13.80;73.00;;;;;;5011322;28;20845;-46
2022/03/27 08:35:42;;;;;;;13.23;8.57;;;13.80;73.00;;;;;;5010591;28;20507;-44
2022/03/27 08:38:11;;;;;;;11.13;8.47;;;13.80;72.90;;;;;;5015772;28;20451;-47
2022/03/27 08:40:39;;;;;;;15.43;10.43;;;13.80;72.90;;;;;;5008756;28;20623;-44
2022/03/27 08:43:10;;;;;;;9.03;8.10;;;13.70;73.10;;;;;;5015213;28;20453;-44
2022/03/27 08:45:40;;;;;;;12.83;8.93;;;13.80;73.10;;;;;;5014945;28;20533;-43
2022/03/27 08:48:09;;;;;;;12.03;8.20;;;13.80;73.10;;;;;;4998017;28;20447;-44
2022/03/27 08:50:43;;;;;;;10.60;8.73;;;13.70;73.00;;;;;;5004562;28;21004;-45
2022/03/27 08:53:12;;;;;;;11.17;9.90;;;13.70;72.90;;;;;;5006075;28;20474;-43
2022/03/27 08:55:46;;;;;;;16.70;11.57;;;13.70;73.10;;;;;;5003456;28;21143;-42
2022/03/27 08:58:15;;;;;;;11.67;9.93;;;13.70;73.50;;;;;;5011437;28;20429;-47
2022/03/27 09:00:45;;;;;;;12.33;8.53;;;13.70;73.30;;;;;;5000664;28;21098;-44
2022/03/27 09:03:14;;;;;;;12.00;9.20;;;13.70;73.20;;;;;;5004348;28;20530;-46
2022/03/27 09:05:42;;;;;;;11.13;8.70;;;13.70;73.20;;;;;;5010125;28;20467;-44
2022/03/27 09:08:12;;;;;;;14.13;10.13;;;13.70;73.00;;;;;;4998972;28;20472;-43
2022/03/27 09:10:41;;;;;;;15.80;11.77;;;13.70;73.10;;;;;;5009966;28;20525;-44
2022/03/27 09:13:14;;;;;;;15.47;10.77;;;13.70;73.50;;;;;;5011200;28;20452;-45
2022/03/27 09:15:44;;;;;;;12.60;9.53;;;13.70;73.60;;;;;;5009228;28;20525;-47
2022/03/27 09:18:14;;;;;;;14.33;9.57;;;13.70;73.60;;;;;;4995514;28;20819;-49
2022/03/27 09:20:44;;;;;;;15.00;10.67;;;13.70;73.50;;;;;;4997260;28;20505;-46
2022/03/27 09:23:14;;;;;;;16.60;10.43;;;13.70;73.60;;;;;;5002342;28;20454;-43
2022/03/27 09:25:44;;;;;;;9.77;7.80;;;13.70;73.80;;;;;;5009586;28;20553;-43
2022/03/27 09:28:13;;;;;;;23.03;14.27;;;13.70;73.50;;;;;;5009921;28;20447;-44
2022/03/27 09:30:43;;;;;;;11.40;8.03;;;13.70;73.70;;;;;;5010137;28;20470;-45
2022/03/27 09:33:12;;;;;;;11.47;8.90;;;13.70;73.60;;;;;;4992891;28;20483;-45
2022/03/27 09:35:40;;;;;;;11.80;8.53;;;13.70;73.40;;;;;;5005451;28;20890;-45
2022/03/27 09:38:19;;;;;;;10.60;8.30;;;13.70;73.50;;;;;;4998102;28;20446;-44
2022/03/27 09:40:47;;;;;;;9.40;7.17;;;13.70;73.50;;;;;;5007780;28;20524;-43
2022/03/27 09:43:16;;;;;;;10.70;7.70;;;13.70;73.20;;;;;;5077970;22;20602;-49
2022/03/27 09:45:56;;;;;;;11.50;7.90;;;13.70;73.30;;;;;;5002385;28;20537;-48
2022/03/27 09:48:25;;;;;;;11.37;8.73;;;13.70;73.40;;;;;;4995231;28;20489;-49
2022/03/27 09:50:53;;;;;;;10.90;8.57;;;13.70;73.30;;;;;;4989835;28;20513;-49
2022/03/27 09:53:27;;;;;;;26.07;14.97;;;13.70;73.60;;;;;;4989818;28;20463;-48
2022/03/27 09:56:15;;;;;;;15.67;12.23;;;13.70;74.20;;;;;;5003169;28;20586;-49
2022/03/27 09:58:44;;;;;;;21.17;13.50;;;13.70;74.50;;;;;;5010661;28;20424;-48
2022/03/27 10:01:15;;;;;;;21.50;14.97;;;13.70;74.80;;;;;;5010199;28;20497;-49
2022/03/27 10:04:03;;;;;;;13.33;9.00;;;13.70;75.20;;;;;;5003567;28;20545;-48
2022/03/27 10:06:33;;;;;;;11.33;9.63;;;13.70;74.10;;;;;;4993574;28;20531;-48
2022/03/27 10:09:03;;;;;;;11.43;8.17;;;13.70;74.10;;;;;;4989835;28;21061;-49
2022/03/27 10:11:32;;;;;;;11.57;7.80;;;13.70;73.90;;;;;;4990495;28;20440;-49
2022/03/27 10:14:00;;;;;;;11.03;7.97;;;13.70;74.10;;;;;;4990354;28;20846;-49
2022/03/27 10:16:32;;;;;;;12.50;8.87;;;13.70;75.10;;;;;;4989803;28;20451;-48
2022/03/27 10:19:04;;;;;;;11.87;9.27;;;13.70;73.90;;;;;;5005836;28;20490;-48
2022/03/27 10:21:34;;;;;;;13.00;9.07;;;13.70;73.70;;;;;;5010542;28;21029;-48
2022/03/27 10:24:13;;;;;;;15.23;9.93;;;13.70;73.80;;;;;;4990086;28;20534;-48
2022/03/27 10:26:43;;;;;;;10.43;8.53;;;13.70;74.00;;;;;;4991067;28;20447;-48
2022/03/27 10:29:13;;;;;;;13.57;8.90;;;13.70;73.80;;;;;;4990221;28;20463;-49
2022/03/27 10:31:43;;;;;;;12.13;8.90;;;13.70;73.80;;;;;;5003204;28;20467;-48
2022/03/27 10:34:14;;;;;;;14.47;9.07;;;13.70;73.90;;;;;;4992872;28;20855;-49
2022/03/27 10:36:49;;;;;;;11.73;9.70;;;13.70;73.90;;;;;;4993775;28;20431;-48
2022/03/27 10:39:25;;;;;;;13.30;9.70;;;13.70;74.00;;;;;;4994001;28;20474;-47
2022/03/27 10:42:09;;;;;;;13.97;8.87;;;13.70;73.90;;;;;;4994803;28;20466;-48
2022/03/27 10:44:42;;;;;;;12.40;8.90;;;13.70;73.90;;;;;;4992800;28;20468;-49
2022/03/27 10:47:17;;;;;;;12.80;10.30;;;13.70;73.90;;;;;;4994193;28;20452;-48
2022/03/27 10:50:30;;;;;;;15.97;11.17;;;13.70;73.90;;;;;;4993712;28;20471;-48
2022/03/27 10:53:10;;;;;;;14.60;9.70;;;13.70;74.00;;;;;;4959029;28;20465;-48
2022/03/27 10:55:42;;;;;;;16.57;12.53;;;13.70;74.10;;;;;;4987125;28;20535;-48
2022/03/27 10:58:37;;;;;;;19.30;12.23;;;13.70;75.20;;;;;;4994207;28;20913;-49
2022/03/27 11:01:09;;;;;;;14.33;10.33;;;13.70;74.70;;;;;;5003223;28;20459;-49
2022/03/27 11:03:51;;;;;;;17.10;11.50;;;13.70;74.50;;;;;;4993560;28;20451;-49
2022/03/27 11:06:28;;;;;;;14.97;10.93;;;13.70;74.70;;;;;;4993597;28;20480;-48
2022/03/27 11:08:58;;;;;;;16.97;12.13;;;13.70;74.70;;;;;;4993927;28;20461;-48
2022/03/27 11:12:00;;;;;;;18.27;11.43;;;13.70;76.00;;;;;;4993035;28;20515;-48
2022/03/27 11:15:01;;;;;;;16.67;11.90;;;13.70;75.00;;;;;;4987934;28;20564;-48
2022/03/27 11:17:52;;;;;;;14.93;10.87;;;13.70;75.10;;;;;;4982009;28;21069;-47
2022/03/27 11:20:55;;;;;;;16.20;12.47;;;13.70;75.00;;;;;;4989724;28;20482;-49
2022/03/27 11:23:36;;;;;;;15.13;11.60;;;13.70;75.00;;;;;;4991247;28;20479;-48
2022/03/27 11:26:06;;;;;;;14.90;11.83;;;13.70;75.30;;;;;;4992293;28;20863;-49
2022/03/27 11:28:48;;;;;;;15.30;11.90;;;13.70;75.10;;;;;;5002932;28;20474;-48
2022/03/27 11:31:25;;;;;;;14.50;11.43;;;13.70;75.10;;;;;;4996070;28;20442;-48
2022/03/27 11:34:17;;;;;;;14.60;11.63;;;13.70;75.10;;;;;;5011443;28;20459;-48
2022/03/27 11:36:49;;;;;;;14.37;11.80;;;13.70;75.10;;;;;;4991595;28;20987;-49
2022/03/27 11:39:39;;;;;;;15.60;11.97;;;13.70;75.10;;;;;;4992511;28;21073;-48
2022/03/27 11:42:30;;;;;;;17.00;12.43;;;13.70;75.20;;;;;;4989593;28;20534;-48
2022/03/27 11:45:13;;;;;;;16.10;10.87;;;13.70;75.30;;;;;;5002617;28;20468;-48
2022/03/27 11:47:43;;;;;;;14.63;11.47;;;13.70;75.20;;;;;;5006991;28;20535;-49
2022/03/27 11:50:29;;;;;;;14.70;12.20;;;13.70;75.30;;;;;;4992773;28;21053;-49
2022/03/27 11:53:00;;;;;;;14.33;11.63;;;13.70;75.30;;;;;;4996133;28;20495;-48
2022/03/27 11:55:30;;;;;;;13.63;11.37;;;13.70;75.50;;;;;;4996333;28;20501;-47
2022/03/27 11:57:59;;;;;;;15.07;11.17;;;13.70;75.70;;;;;;5000391;28;20458;-46
2022/03/27 12:00:34;;;;;;;16.50;11.30;;;13.70;76.40;;;;;;4995265;28;20483;-49
2022/03/27 12:03:04;;;;;;;18.03;13.10;;;13.80;76.10;;;;;;4989463;28;20688;-49
2022/03/27 12:05:36;;;;;;;19.00;13.90;;;13.70;76.20;;;;;;4989048;28;20482;-49
2022/03/27 12:08:07;;;;;;;20.13;11.87;;;13.80;76.60;;;;;;4998656;28;20450;-48
2022/03/27 12:10:41;;;;;;;16.67;12.93;;;13.80;76.50;;;;;;5005299;28;21030;-49
2022/03/27 12:13:11;;;;;;;18.03;13.20;;;13.80;76.40;;;;;;4991423;28;20542;-48
2022/03/27 12:15:49;;;;;;;14.77;12.53;;;13.80;76.30;;;;;;5005801;28;20494;-48
2022/03/27 12:18:32;;;;;;;17.73;14.10;;;13.80;76.30;;;;;;4998589;28;20456;-48
2022/03/27 12:21:02;;;;;;;21.20;13.77;;;13.80;77.20;;;;;;4996332;28;20492;-48
2022/03/27 12:23:33;;;;;;;19.07;13.77;;;13.80;76.90;;;;;;4995460;28;21006;-48
2022/03/27 12:29:39;;;;;;;16.23;12.60;;;13.80;76.60;;;;;;5004216;28;20466;-48
2022/03/27 12:32:06;;;;;;;19.97;12.97;;;13.80;76.80;;;;;;4983685;28;20449;-49
2022/03/27 12:34:40;;;;;;;23.10;18.03;;;13.80;76.80;;;;;;5002510;28;20994;-49
2022/03/27 12:37:11;;;;;;;19.70;13.87;;;13.80;77.20;;;;;;4990892;28;20445;-49
2022/03/27 12:40:03;;;;;;;16.73;12.23;;;13.80;77.00;;;;;;4999086;28;20466;-49
2022/03/27 12:42:35;;;;;;;15.93;12.20;;;13.80;76.90;;;;;;4996232;28;20467;-48
2022/03/27 12:45:07;;;;;;;18.30;12.33;;;13.80;77.00;;;;;;4994981;28;20558;-48
2022/03/27 12:47:37;;;;;;;16.43;12.80;;;13.80;76.90;;;;;;5004726;28;20490;-48
2022/03/27 12:50:06;;;;;;;16.00;11.80;;;13.80;77.00;;;;;;4999749;28;20538;-49
2022/03/27 12:52:52;;;;;;;15.53;11.87;;;13.80;77.00;;;;;;4997692;28;20498;-48
2022/03/27 12:55:25;;;;;;;16.60;12.17;;;13.80;76.90;;;;;;4990449;28;20976;-49
2022/03/27 12:57:58;;;;;;;18.30;13.20;;;13.80;77.00;;;;;;4990939;28;20441;-49
2022/03/27 13:00:28;;;;;;;19.50;12.70;;;13.80;77.00;;;;;;5001306;28;20478;-49
2022/03/27 13:03:11;;;;;;;14.90;11.93;;;13.80;77.10;;;;;;5000273;28;20471;-46
2022/03/27 13:05:39;;;;;;;16.50;13.20;;;13.80;77.00;;;;;;4989664;28;20475;-49
2022/03/27 13:08:09;;;;;;;16.90;12.93;;;13.80;77.30;;;;;;4990071;28;20502;-49
2022/03/27 13:10:39;;;;;;;19.30;11.93;;;13.80;78.50;;;;;;4990349;28;21001;-48